Time;durP1;ratioP1;P1;durP2;ratioP2;P2;SDS_P1;SDS_P2;PMS_P1;PMS_P2;Temp;Humidity;BMP_temperature;BMP_pressure;BME280_temperature;BME280_humidity;BME280_pressure;Samples;Min_cycle;Max_cycle;Signal;HPM_P1;HPM_P2
2021/08/09 00:02:24;;;;;;;12.80;3.42;;;15.10;81.80;;;;;;5018525;28;20482;-77
2021/08/09 00:04:49;;;;;;;12.93;3.70;;;15.10;81.80;;;;;;5018936;28;20149;-73
2021/08/09 00:07:16;;;;;;;13.85;3.75;;;15.10;81.70;;;;;;5017395;28;20060;-73
2021/08/09 00:09:41;;;;;;;12.15;3.63;;;15.10;81.80;;;;;;5025345;28;20053;-73
2021/08/09 00:12:07;;;;;;;12.43;3.75;;;15.10;81.80;;;;;;5021111;28;20056;-74
2021/08/09 00:14:33;;;;;;;13.43;3.85;;;15.10;81.90;;;;;;5027283;28;20025;-81
2021/08/09 00:16:59;;;;;;;12.85;3.85;;;15.00;82.00;;;;;;5023039;28;20065;-75
2021/08/09 00:19:24;;;;;;;16.15;3.92;;;15.00;82.00;;;;;;5031870;28;20437;-75
2021/08/09 00:21:51;;;;;;;12.90;4.05;;;15.00;82.20;;;;;;5030686;28;20033;-73
2021/08/09 00:24:17;;;;;;;13.52;3.63;;;15.00;82.30;;;;;;5024222;28;20053;-73
2021/08/09 00:26:43;;;;;;;14.48;4.35;;;14.90;82.40;;;;;;5035580;28;20129;-73
2021/08/09 00:29:08;;;;;;;9.80;3.58;;;14.90;82.40;;;;;;5015503;28;20072;-79
2021/08/09 00:31:34;;;;;;;10.40;3.65;;;14.90;82.50;;;;;;5021257;28;20037;-73
2021/08/09 00:34:00;;;;;;;13.32;3.83;;;14.90;82.40;;;;;;5028090;28;20577;-75
2021/08/09 00:36:26;;;;;;;14.88;4.65;;;14.80;82.60;;;;;;5021803;28;20119;-77
2021/08/09 00:38:52;;;;;;;13.23;4.18;;;14.80;82.60;;;;;;5027966;28;20033;-73
2021/08/09 00:41:17;;;;;;;12.25;3.85;;;14.80;82.80;;;;;;5034810;28;20480;-80
2021/08/09 00:43:43;;;;;;;11.40;4.15;;;14.80;82.80;;;;;;5034754;28;20109;-76
2021/08/09 00:46:09;;;;;;;13.38;4.40;;;14.80;82.90;;;;;;5026637;28;20034;-73
2021/08/09 00:48:34;;;;;;;12.30;3.70;;;14.80;82.90;;;;;;5030794;28;20439;-73
2021/08/09 00:51:02;;;;;;;13.35;4.35;;;14.80;83.10;;;;;;5029636;28;20440;-76
2021/08/09 00:53:28;;;;;;;11.18;3.58;;;14.80;83.10;;;;;;5031528;28;20083;-73
2021/08/09 00:55:55;;;;;;;12.02;4.07;;;14.80;82.90;;;;;;5029673;28;20038;-73
2021/08/09 00:58:20;;;;;;;10.50;4.00;;;14.90;83.00;;;;;;5028894;28;20452;-73
2021/08/09 01:00:47;;;;;;;11.98;4.15;;;14.80;83.00;;;;;;5032931;28;20049;-75
2021/08/09 01:03:13;;;;;;;12.18;4.05;;;14.80;83.10;;;;;;5017805;28;20443;-78
2021/08/09 01:05:39;;;;;;;11.07;3.67;;;14.90;83.20;;;;;;5001539;28;20038;-73
2021/08/09 01:08:24;;;;;;;11.80;3.90;;;14.80;83.30;;;;;;5017362;28;20031;-75
2021/08/09 01:11:05;;;;;;;13.40;3.58;;;14.80;83.30;;;;;;5019226;28;20059;-73
2021/08/09 01:13:56;;;;;;;13.45;3.75;;;14.90;83.20;;;;;;5028127;28;20036;-73
2021/08/09 01:16:27;;;;;;;10.30;3.55;;;14.90;83.20;;;;;;5001472;28;20478;-74
2021/08/09 01:18:59;;;;;;;16.73;3.85;;;14.90;83.10;;;;;;5009220;28;20385;-76
2021/08/09 01:21:26;;;;;;;11.43;3.83;;;14.90;83.20;;;;;;5025283;28;20033;-73
2021/08/09 01:24:02;;;;;;;12.85;4.05;;;14.90;83.20;;;;;;5011898;28;20485;-72
2021/08/09 01:26:43;;;;;;;12.10;3.60;;;14.90;83.00;;;;;;4999936;28;20050;-73
2021/08/09 01:29:13;;;;;;;13.18;4.03;;;14.90;83.10;;;;;;4997198;28;20109;-73
2021/08/09 01:31:43;;;;;;;13.88;4.68;;;14.90;82.90;;;;;;5002030;28;20029;-73
2021/08/09 01:34:11;;;;;;;8.98;3.85;;;14.90;82.90;;;;;;4997284;28;20588;-79
2021/08/09 01:36:42;;;;;;;10.18;3.70;;;14.90;82.80;;;;;;5003704;28;20105;-73
2021/08/09 01:39:10;;;;;;;12.88;3.85;;;14.90;82.80;;;;;;5014721;28;20046;-78
2021/08/09 01:41:37;;;;;;;12.25;3.70;;;14.90;82.80;;;;;;5003805;28;20081;-75
2021/08/09 01:44:05;;;;;;;14.27;3.35;;;14.90;82.80;;;;;;5014546;28;20044;-76
2021/08/09 01:46:34;;;;;;;13.20;3.38;;;14.90;82.60;;;;;;5029838;28;20122;-73
2021/08/09 01:49:06;;;;;;;8.88;3.38;;;14.90;82.50;;;;;;5030390;28;20056;-73
2021/08/09 01:51:34;;;;;;;14.07;3.63;;;15.00;82.60;;;;;;5013941;28;20036;-78
2021/08/09 01:54:01;;;;;;;10.35;3.00;;;15.00;82.30;;;;;;5002918;28;20339;-74
2021/08/09 01:56:27;;;;;;;12.98;3.08;;;15.00;82.30;;;;;;4995420;28;20549;-79
2021/08/09 01:58:53;;;;;;;11.43;3.63;;;15.00;81.90;;;;;;5001331;28;20113;-82
2021/08/09 02:01:20;;;;;;;13.23;3.28;;;15.10;81.90;;;;;;5006294;28;20478;-73
2021/08/09 02:03:46;;;;;;;11.65;3.38;;;15.10;81.90;;;;;;5000978;28;20029;-73
2021/08/09 02:06:12;;;;;;;9.55;3.45;;;15.10;81.90;;;;;;4993582;28;20034;-77
2021/08/09 02:08:38;;;;;;;17.63;4.30;;;15.10;81.90;;;;;;4996864;28;20045;-74
2021/08/09 02:11:16;;;;;;;7.82;3.40;;;15.10;81.90;;;;;;5001611;28;20026;-77
2021/08/09 02:13:50;;;;;;;14.93;3.25;;;15.10;81.90;;;;;;5000663;28;20054;-74
2021/08/09 02:16:21;;;;;;;14.13;3.65;;;15.10;82.10;;;;;;5011351;28;20037;-73
2021/08/09 02:19:03;;;;;;;11.75;3.50;;;15.10;82.10;;;;;;5006576;28;20034;-73
2021/08/09 02:21:40;;;;;;;7.07;2.78;;;15.00;82.20;;;;;;5021299;28;20022;-76
2021/08/09 02:24:10;;;;;;;13.88;3.30;;;15.00;82.00;;;;;;5031639;28;20030;-79
2021/08/09 02:27:01;;;;;;;11.38;3.30;;;15.10;81.80;;;;;;5029086;28;20065;-73
2021/08/09 02:29:31;;;;;;;12.07;3.28;;;15.10;82.10;;;;;;5029922;28;20042;-73
2021/08/09 02:31:58;;;;;;;11.02;3.60;;;15.10;82.10;;;;;;5037486;28;20163;-75
2021/08/09 02:34:28;;;;;;;10.50;3.30;;;15.10;82.20;;;;;;5039948;28;20029;-73
2021/08/09 02:36:54;;;;;;;8.90;3.33;;;15.00;82.20;;;;;;5032052;28;20038;-73
2021/08/09 02:39:21;;;;;;;11.20;3.70;;;15.00;82.40;;;;;;5025186;28;20041;-73
2021/08/09 02:41:48;;;;;;;9.95;3.65;;;15.00;82.50;;;;;;5037351;28;20359;-73
2021/08/09 02:44:14;;;;;;;12.80;3.38;;;15.00;82.60;;;;;;5037539;28;20021;-73
2021/08/09 02:46:41;;;;;;;9.35;3.28;;;15.00;82.70;;;;;;5035764;28;20039;-78
2021/08/09 02:49:11;;;;;;;10.35;3.53;;;14.90;82.90;;;;;;5020610;28;20022;-73
2021/08/09 02:51:37;;;;;;;11.07;3.40;;;14.90;83.00;;;;;;5019577;28;20474;-73
2021/08/09 02:54:04;;;;;;;11.45;3.25;;;14.90;83.10;;;;;;5014255;28;20112;-77
2021/08/09 02:56:30;;;;;;;12.00;4.18;;;14.90;83.30;;;;;;4999696;28;20033;-72
2021/08/09 02:58:56;;;;;;;11.02;3.70;;;14.90;83.30;;;;;;5000273;28;20097;-73
2021/08/09 03:01:27;;;;;;;9.75;3.45;;;14.80;83.40;;;;;;5000816;28;20041;-73
2021/08/09 03:03:58;;;;;;;10.68;3.42;;;14.80;83.60;;;;;;5005350;28;20077;-76
2021/08/09 03:06:25;;;;;;;11.63;4.00;;;14.80;83.70;;;;;;5004347;28;20364;-73
2021/08/09 03:08:52;;;;;;;8.25;3.63;;;14.70;83.90;;;;;;5003719;28;20408;-75
2021/08/09 03:11:18;;;;;;;10.38;2.92;;;14.70;83.80;;;;;;5000745;28;20161;-73
2021/08/09 03:13:48;;;;;;;9.57;3.50;;;14.70;83.90;;;;;;5031388;28;20112;-74
2021/08/09 03:16:14;;;;;;;16.48;3.60;;;14.70;83.90;;;;;;5019218;28;20036;-73
2021/08/09 03:18:40;;;;;;;14.00;4.28;;;14.60;84.10;;;;;;5023387;28;20029;-72
2021/08/09 03:21:06;;;;;;;10.50;3.53;;;14.60;84.30;;;;;;5028859;28;20851;-74
2021/08/09 03:23:32;;;;;;;9.57;3.75;;;14.60;84.50;;;;;;5029249;28;20128;-73
2021/08/09 03:25:59;;;;;;;9.98;3.88;;;14.60;84.60;;;;;;5025143;28;20033;-73
2021/08/09 03:28:24;;;;;;;9.00;3.22;;;14.50;84.60;;;;;;5020957;28;20033;-76
2021/08/09 03:30:50;;;;;;;10.90;4.43;;;14.50;84.70;;;;;;5024782;28;20026;-72
2021/08/09 03:33:16;;;;;;;10.95;3.72;;;14.50;84.80;;;;;;5032130;28;20041;-74
2021/08/09 03:35:42;;;;;;;10.82;3.97;;;14.40;85.00;;;;;;5037278;28;20463;-72
2021/08/09 03:38:07;;;;;;;10.65;3.85;;;14.40;85.00;;;;;;5028593;28;20438;-72
2021/08/09 03:40:33;;;;;;;9.70;3.80;;;14.50;85.10;;;;;;5027545;28;20121;-73
2021/08/09 03:42:59;;;;;;;12.30;4.18;;;14.40;85.20;;;;;;5027529;28;20108;-73
2021/08/09 03:45:24;;;;;;;11.65;3.80;;;14.40;85.30;;;;;;5042644;28;20029;-72
2021/08/09 03:47:51;;;;;;;11.27;4.10;;;14.30;85.50;;;;;;5024703;28;20056;-72
2021/08/09 03:50:16;;;;;;;10.63;4.18;;;14.40;85.40;;;;;;5019041;28;20032;-73
2021/08/09 03:52:46;;;;;;;11.50;4.20;;;14.30;85.50;;;;;;5029645;28;20435;-73
2021/08/09 03:55:12;;;;;;;8.82;3.65;;;14.30;85.70;;;;;;5029445;28;20523;-72
2021/08/09 03:57:38;;;;;;;8.98;3.95;;;14.30;85.80;;;;;;5021305;28;20026;-73
2021/08/09 04:00:05;;;;;;;10.98;3.67;;;14.20;85.80;;;;;;5027921;28;20492;-73
2021/08/09 04:02:31;;;;;;;14.80;4.63;;;14.10;85.80;;;;;;5025111;28;20034;-73
2021/08/09 04:04:58;;;;;;;10.02;3.50;;;14.10;86.10;;;;;;5014203;28;20018;-73
2021/08/09 04:07:27;;;;;;;10.00;3.97;;;14.20;86.20;;;;;;5015033;28;20021;-72
2021/08/09 04:09:53;;;;;;;9.30;3.72;;;14.10;86.30;;;;;;5000526;28;20030;-74
2021/08/09 04:12:20;;;;;;;10.25;4.30;;;14.10;86.30;;;;;;5010082;28;20061;-75
2021/08/09 04:14:45;;;;;;;10.77;4.03;;;14.10;86.40;;;;;;5008021;28;20058;-73
2021/08/09 04:17:11;;;;;;;10.88;4.13;;;14.10;86.50;;;;;;5011635;28;20038;-76
2021/08/09 04:19:37;;;;;;;8.63;3.90;;;14.10;86.60;;;;;;5018252;28;20080;-75
2021/08/09 04:22:03;;;;;;;10.02;4.65;;;14.10;86.60;;;;;;5002007;28;20029;-72
2021/08/09 04:24:28;;;;;;;12.63;4.60;;;14.10;86.70;;;;;;5004036;28;20050;-73
2021/08/09 04:26:54;;;;;;;11.18;4.32;;;14.10;86.90;;;;;;5000783;28;20431;-73
2021/08/09 04:29:19;;;;;;;10.73;3.80;;;14.10;87.00;;;;;;5009350;28;20034;-73
2021/08/09 04:31:45;;;;;;;12.75;4.43;;;14.10;86.90;;;;;;4998662;28;20034;-73
2021/08/09 04:34:11;;;;;;;10.70;5.25;;;14.10;87.00;;;;;;5003695;28;20125;-73
2021/08/09 04:36:37;;;;;;;10.02;3.85;;;14.20;87.00;;;;;;4999666;28;20026;-72
2021/08/09 04:39:03;;;;;;;12.23;4.25;;;14.20;87.00;;;;;;5015550;28;20160;-74
2021/08/09 04:41:28;;;;;;;12.23;3.97;;;14.20;86.80;;;;;;5006548;28;20077;-73
2021/08/09 04:43:54;;;;;;;8.23;3.60;;;14.30;86.90;;;;;;5018756;28;20418;-75
2021/08/09 04:46:20;;;;;;;11.05;4.28;;;14.20;86.70;;;;;;5002598;28;20030;-72
2021/08/09 04:48:45;;;;;;;13.93;4.10;;;14.30;86.60;;;;;;5004196;28;20026;-74
2021/08/09 04:51:11;;;;;;;11.85;3.88;;;14.30;86.30;;;;;;5005627;28;20116;-75
2021/08/09 04:53:37;;;;;;;9.85;4.32;;;14.40;86.50;;;;;;5026422;28;20029;-74
2021/08/09 04:56:02;;;;;;;11.20;4.10;;;14.40;86.50;;;;;;5032290;28;20475;-73
2021/08/09 04:58:28;;;;;;;7.15;3.90;;;14.50;86.40;;;;;;4992694;28;20488;-72
2021/08/09 05:00:54;;;;;;;10.95;3.90;;;14.50;86.50;;;;;;5002621;28;20110;-77
2021/08/09 05:03:19;;;;;;;7.70;3.80;;;14.60;86.40;;;;;;4998732;28;20670;-72
2021/08/09 05:05:46;;;;;;;9.50;4.10;;;14.70;86.20;;;;;;5010682;28;20030;-77
2021/08/09 05:08:12;;;;;;;10.48;3.67;;;14.80;86.00;;;;;;4998066;28;20066;-72
2021/08/09 05:10:39;;;;;;;9.55;3.83;;;14.90;85.70;;;;;;4999737;28;20026;-78
2021/08/09 05:13:04;;;;;;;10.55;3.78;;;15.00;85.50;;;;;;5018850;28;20109;-75
2021/08/09 05:15:32;;;;;;;9.48;4.20;;;15.00;85.30;;;;;;5002033;28;20066;-72
2021/08/09 05:17:58;;;;;;;8.93;3.60;;;15.10;85.20;;;;;;5011201;28;20475;-73
2021/08/09 05:20:24;;;;;;;8.35;3.28;;;15.20;84.90;;;;;;5016693;28;20026;-72
2021/08/09 05:22:49;;;;;;;7.78;3.45;;;15.30;84.70;;;;;;5017551;28;20101;-72
2021/08/09 05:25:15;;;;;;;7.38;2.70;;;15.30;84.20;;;;;;5029443;28;20489;-73
2021/08/09 05:27:41;;;;;;;7.38;3.47;;;15.40;84.20;;;;;;5037775;28;20029;-73
2021/08/09 05:30:09;;;;;;;10.52;3.55;;;15.50;84.20;;;;;;5027233;28;20407;-77
2021/08/09 05:32:36;;;;;;;9.43;3.03;;;15.60;83.70;;;;;;5010314;28;20422;-73
2021/08/09 05:35:03;;;;;;;5.85;2.97;;;15.70;83.60;;;;;;4994002;28;20084;-74
2021/08/09 05:37:31;;;;;;;7.45;3.08;;;15.80;83.20;;;;;;5008898;28;20088;-73
2021/08/09 05:40:01;;;;;;;5.95;2.80;;;15.90;82.80;;;;;;5007010;28;20046;-73
2021/08/09 05:42:27;;;;;;;7.07;2.97;;;16.00;82.90;;;;;;5016482;28;20342;-72
2021/08/09 05:44:53;;;;;;;7.35;2.80;;;16.00;82.50;;;;;;5014902;28;20450;-73
2021/08/09 05:47:19;;;;;;;10.60;3.05;;;16.00;82.50;;;;;;5005560;28;20046;-74
2021/08/09 05:49:45;;;;;;;7.80;3.03;;;16.00;82.60;;;;;;5004580;28;20034;-69
2021/08/09 05:52:21;;;;;;;8.32;2.97;;;15.90;82.60;;;;;;5012683;28;20080;-77
2021/08/09 05:54:48;;;;;;;8.50;2.95;;;15.90;82.50;;;;;;5001525;28;20461;-70
2021/08/09 05:57:14;;;;;;;6.60;3.03;;;16.00;82.60;;;;;;5006169;28;20042;-71
2021/08/09 05:59:40;;;;;;;9.75;3.08;;;16.00;82.60;;;;;;5009937;28;20488;-71
2021/08/09 06:02:06;;;;;;;7.63;3.40;;;16.10;82.40;;;;;;5008942;28;20129;-71
2021/08/09 06:04:32;;;;;;;7.18;2.85;;;16.10;82.40;;;;;;5011211;28;20227;-71
2021/08/09 06:06:57;;;;;;;8.73;3.13;;;16.20;82.20;;;;;;5010801;28;20073;-70
2021/08/09 06:09:23;;;;;;;8.07;2.88;;;16.10;82.00;;;;;;5012382;28;20038;-71
2021/08/09 06:11:49;;;;;;;7.57;3.30;;;16.10;81.90;;;;;;5006157;28;20034;-71
2021/08/09 06:14:14;;;;;;;9.00;2.50;;;16.20;81.70;;;;;;5007209;28;20087;-73
2021/08/09 06:16:40;;;;;;;8.98;3.38;;;16.20;81.70;;;;;;5021033;28;20041;-73
2021/08/09 06:19:06;;;;;;;7.85;3.03;;;16.20;81.60;;;;;;5022740;28;20115;-72
2021/08/09 06:21:31;;;;;;;7.88;2.58;;;16.30;81.70;;;;;;5031208;28;20338;-71
2021/08/09 06:23:57;;;;;;;7.43;2.88;;;16.30;81.60;;;;;;5033296;28;20036;-70
2021/08/09 06:26:23;;;;;;;6.32;2.63;;;16.40;81.40;;;;;;5027044;28;20038;-72
2021/08/09 06:28:48;;;;;;;6.32;2.90;;;16.50;81.20;;;;;;5017313;28;20059;-69
2021/08/09 06:31:14;;;;;;;6.55;2.60;;;16.50;80.90;;;;;;4999224;28;20401;-70
2021/08/09 06:33:41;;;;;;;8.30;2.92;;;16.60;80.80;;;;;;5012955;28;20107;-69
2021/08/09 06:36:07;;;;;;;7.72;3.22;;;16.50;80.80;;;;;;4998216;28;20034;-73
2021/08/09 06:38:32;;;;;;;10.63;2.90;;;16.50;80.90;;;;;;5013479;28;20034;-70
2021/08/09 06:40:58;;;;;;;6.82;2.90;;;16.50;81.00;;;;;;5008877;28;20169;-73
2021/08/09 06:43:24;;;;;;;6.78;3.03;;;16.50;80.80;;;;;;5020212;28;20438;-70
2021/08/09 06:45:49;;;;;;;8.55;3.03;;;16.60;80.90;;;;;;5029446;28;20029;-71
2021/08/09 06:48:15;;;;;;;7.63;3.00;;;16.60;80.60;;;;;;5023597;28;20044;-71
2021/08/09 06:50:42;;;;;;;8.10;2.80;;;16.70;80.30;;;;;;5027048;28;20029;-74
2021/08/09 06:53:08;;;;;;;7.45;2.90;;;16.80;80.10;;;;;;5021148;28;20599;-70
2021/08/09 06:55:34;;;;;;;8.25;2.85;;;17.00;80.00;;;;;;5021699;28;20085;-73
2021/08/09 06:57:59;;;;;;;7.90;2.67;;;17.10;78.50;;;;;;5018409;28;20030;-69
2021/08/09 07:00:25;;;;;;;9.18;2.53;;;17.20;79.00;;;;;;5024902;28;20033;-69
2021/08/09 07:02:51;;;;;;;6.38;2.45;;;17.30;78.40;;;;;;5027525;28;20037;-69
2021/08/09 07:05:16;;;;;;;7.53;2.50;;;17.40;78.30;;;;;;5023653;28;20052;-69
2021/08/09 07:07:44;;;;;;;8.15;2.72;;;17.40;78.20;;;;;;5024842;28;20120;-70
2021/08/09 07:10:10;;;;;;;10.23;2.78;;;17.50;77.60;;;;;;5025843;28;20052;-70
2021/08/09 07:12:36;;;;;;;10.07;2.95;;;17.50;77.50;;;;;;5019907;28;20040;-70
2021/08/09 07:15:02;;;;;;;8.93;2.72;;;17.40;77.40;;;;;;5025490;28;20030;-70
2021/08/09 07:17:28;;;;;;;7.05;2.38;;;17.40;77.40;;;;;;5029200;28;20053;-70
2021/08/09 07:19:53;;;;;;;10.80;2.78;;;17.40;77.30;;;;;;5015665;28;20063;-71
2021/08/09 07:22:19;;;;;;;7.55;2.50;;;17.50;77.30;;;;;;5019561;28;20025;-71
2021/08/09 07:24:44;;;;;;;6.55;2.30;;;17.50;77.60;;;;;;5015621;28;20080;-70
2021/08/09 07:27:12;;;;;;;8.38;2.40;;;17.50;77.10;;;;;;5024013;28;20686;-71
2021/08/09 07:29:37;;;;;;;8.00;2.55;;;17.40;77.60;;;;;;5017086;28;20092;-72
2021/08/09 07:32:03;;;;;;;8.07;2.67;;;17.40;77.80;;;;;;5024844;28;20489;-71
2021/08/09 07:34:29;;;;;;;10.05;3.10;;;17.30;77.90;;;;;;5021158;28;20527;-71
2021/08/09 07:36:54;;;;;;;8.57;2.63;;;17.20;78.20;;;;;;5020172;28;20026;-70
2021/08/09 07:39:20;;;;;;;7.13;2.67;;;17.20;78.20;;;;;;5002250;28;20053;-70
2021/08/09 07:41:46;;;;;;;6.65;2.80;;;17.20;78.30;;;;;;5002894;28;20069;-71
2021/08/09 07:44:11;;;;;;;8.07;2.70;;;17.30;78.40;;;;;;4996993;28;20045;-70
2021/08/09 07:46:37;;;;;;;6.82;2.65;;;17.30;78.10;;;;;;5010662;28;20055;-71
2021/08/09 07:49:03;;;;;;;8.60;2.70;;;17.50;78.00;;;;;;5008012;28;20037;-70
2021/08/09 07:51:28;;;;;;;9.45;2.38;;;17.60;77.20;;;;;;5012346;28;20038;-71
2021/08/09 07:53:54;;;;;;;9.02;2.65;;;17.70;76.80;;;;;;5003724;28;20535;-72
2021/08/09 07:56:20;;;;;;;8.63;3.03;;;17.80;76.60;;;;;;5005167;28;21094;-71
2021/08/09 07:58:45;;;;;;;10.23;2.40;;;17.90;76.40;;;;;;5011200;28;20037;-70
2021/08/09 08:01:11;;;;;;;7.68;2.53;;;17.80;76.20;;;;;;5001299;28;20046;-70
2021/08/09 08:03:37;;;;;;;10.00;3.03;;;17.80;76.40;;;;;;5001627;28;20116;-70
2021/08/09 08:06:02;;;;;;;8.13;2.47;;;17.70;76.90;;;;;;5003385;28;20076;-73
2021/08/09 08:08:28;;;;;;;8.05;2.72;;;17.60;77.80;;;;;;5004419;28;20045;-75
2021/08/09 08:10:54;;;;;;;6.68;2.38;;;17.60;77.90;;;;;;5003048;28;20035;-70
2021/08/09 08:13:19;;;;;;;7.00;2.45;;;17.60;77.70;;;;;;5006791;28;20048;-74
2021/08/09 08:15:45;;;;;;;8.93;2.47;;;17.60;77.60;;;;;;5004898;28;20164;-71
2021/08/09 08:18:11;;;;;;;8.45;2.90;;;17.60;77.50;;;;;;5001516;28;20117;-70
2021/08/09 08:20:36;;;;;;;8.52;2.65;;;17.60;77.30;;;;;;4998365;28;20070;-70
2021/08/09 08:23:04;;;;;;;10.10;2.92;;;17.70;77.30;;;;;;5002189;28;20065;-70
2021/08/09 08:25:30;;;;;;;8.82;2.92;;;17.80;77.50;;;;;;4997069;28;20411;-70
2021/08/09 08:27:56;;;;;;;7.63;2.55;;;17.90;76.60;;;;;;5004089;28;20030;-70
2021/08/09 08:30:22;;;;;;;7.10;2.60;;;17.80;76.50;;;;;;5014494;28;20034;-73
2021/08/09 08:32:48;;;;;;;7.47;2.78;;;18.00;76.30;;;;;;5018616;28;20034;-70
2021/08/09 08:35:14;;;;;;;11.88;3.08;;;18.10;76.10;;;;;;5018894;28;20068;-71
2021/08/09 08:37:39;;;;;;;7.28;2.65;;;18.00;76.10;;;;;;5029107;28;20045;-70
2021/08/09 08:40:06;;;;;;;5.85;2.47;;;18.00;76.10;;;;;;5024474;28;20046;-70
2021/08/09 08:42:31;;;;;;;7.88;2.63;;;17.90;76.40;;;;;;5028983;28;20044;-71
2021/08/09 08:44:57;;;;;;;8.73;2.67;;;18.10;76.20;;;;;;5026745;28;20034;-69
2021/08/09 08:47:24;;;;;;;7.32;2.50;;;18.20;76.70;;;;;;5024683;28;20481;-70
2021/08/09 08:49:50;;;;;;;9.43;3.15;;;18.20;75.70;;;;;;5023855;28;20132;-69
2021/08/09 08:52:16;;;;;;;8.55;2.53;;;18.30;75.30;;;;;;5032533;28;20132;-72
2021/08/09 08:54:43;;;;;;;10.02;2.92;;;18.40;75.80;;;;;;5001955;28;20042;-69
2021/08/09 08:57:19;;;;;;;8.57;2.60;;;18.50;75.20;;;;;;5009993;28;20044;-69
2021/08/09 08:59:45;;;;;;;8.25;2.63;;;18.60;75.50;;;;;;5015072;28;20045;-69
2021/08/09 09:02:31;;;;;;;7.97;2.72;;;18.70;75.10;;;;;;5009707;28;20030;-71
2021/08/09 09:05:20;;;;;;;12.77;2.90;;;19.10;73.70;;;;;;5007564;28;20068;-70
2021/08/09 09:07:48;;;;;;;8.63;2.92;;;19.10;73.80;;;;;;5022806;28;20018;-69
2021/08/09 09:10:26;;;;;;;7.78;2.83;;;19.10;74.20;;;;;;5022059;28;20049;-69
2021/08/09 09:13:05;;;;;;;6.60;2.65;;;19.00;73.70;;;;;;5024486;28;20049;-69
2021/08/09 09:15:31;;;;;;;9.50;2.40;;;18.90;74.60;;;;;;5027802;28;20448;-69
2021/08/09 09:17:57;;;;;;;8.10;2.58;;;18.60;76.10;;;;;;5008329;28;20034;-69
2021/08/09 09:20:31;;;;;;;7.60;2.55;;;18.60;76.80;;;;;;4998553;28;20045;-71
2021/08/09 09:23:17;;;;;;;7.03;3.03;;;18.50;76.70;;;;;;5009539;28;21089;-69
2021/08/09 09:25:44;;;;;;;8.82;2.88;;;18.60;76.70;;;;;;5018101;28;20049;-71
2021/08/09 09:28:32;;;;;;;7.88;3.15;;;18.80;77.00;;;;;;5001881;28;20079;-70
2021/08/09 09:31:12;;;;;;;7.80;2.60;;;19.10;75.40;;;;;;4996749;28;20026;-70
2021/08/09 09:33:45;;;;;;;10.45;3.20;;;19.50;74.60;;;;;;5003578;28;20042;-70
2021/08/09 09:36:11;;;;;;;8.27;2.73;;;20.10;72.80;;;;;;5013753;28;20037;-71
2021/08/09 09:38:44;;;;;;;7.50;2.83;;;20.30;71.60;;;;;;5012311;28;20085;-70
2021/08/09 09:41:10;;;;;;;8.10;2.80;;;20.40;71.20;;;;;;4997189;28;20033;-69
2021/08/09 09:43:41;;;;;;;8.07;2.80;;;20.60;70.30;;;;;;5009600;28;20046;-70
2021/08/09 09:46:18;;;;;;;7.35;2.70;;;20.60;70.20;;;;;;5008394;28;20544;-69
2021/08/09 09:48:44;;;;;;;11.50;3.35;;;20.60;70.20;;;;;;4999384;28;20044;-69
2021/08/09 09:51:13;;;;;;;7.55;2.70;;;20.50;69.70;;;;;;5015547;28;20030;-70
2021/08/09 09:53:39;;;;;;;8.70;3.00;;;20.20;70.30;;;;;;5014363;28;20057;-69
2021/08/09 09:56:05;;;;;;;6.05;2.58;;;20.40;70.10;;;;;;5010218;28;20539;-69
2021/08/09 09:58:32;;;;;;;8.68;2.95;;;21.00;69.60;;;;;;5026030;28;20033;-69
2021/08/09 10:01:01;;;;;;;6.82;3.15;;;21.50;67.40;;;;;;5012582;28;20120;-70
2021/08/09 10:03:27;;;;;;;6.53;2.42;;;21.80;64.60;;;;;;5025532;28;20041;-71
2021/08/09 10:05:52;;;;;;;6.47;2.30;;;22.00;63.30;;;;;;5022990;28;20038;-73
2021/08/09 10:08:19;;;;;;;6.45;2.55;;;22.10;62.00;;;;;;5017285;28;20455;-70
2021/08/09 10:10:55;;;;;;;8.82;2.65;;;21.90;63.10;;;;;;5010184;28;20110;-70
2021/08/09 10:13:22;;;;;;;6.90;3.00;;;21.70;63.60;;;;;;5017229;28;20119;-71
2021/08/09 10:15:51;;;;;;;6.13;2.55;;;21.70;64.10;;;;;;5018212;28;20466;-70
2021/08/09 10:18:25;;;;;;;7.90;2.97;;;21.70;64.10;;;;;;5022894;28;20033;-73
2021/08/09 10:20:52;;;;;;;;;;;21.40;63.10;;;;;;5019283;28;20121;-71
2021/08/09 10:23:36;;;;;;;7.10;2.78;;;21.00;65.20;;;;;;5024240;28;19920;-70
2021/08/09 10:26:02;;;;;;;6.47;2.25;;;21.30;64.80;;;;;;5016828;28;20038;-69
2021/08/09 10:28:56;;;;;;;7.15;2.33;;;21.60;61.80;;;;;;5026437;28;20113;-69
2021/08/09 10:31:26;;;;;;;7.07;2.77;;;21.80;62.10;;;;;;5039883;28;20095;-70
2021/08/09 10:33:53;;;;;;;7.10;2.97;;;21.90;61.20;;;;;;5045090;28;20112;-74
2021/08/09 10:36:23;;;;;;;7.85;2.63;;;22.00;61.20;;;;;;5024611;28;20051;-70
2021/08/09 10:38:50;;;;;;;8.18;2.60;;;22.10;61.60;;;;;;5027433;28;20033;-74
2021/08/09 10:41:16;;;;;;;8.00;3.22;;;22.30;61.50;;;;;;5034099;28;20045;-72
2021/08/09 10:44:09;;;;;;;6.68;2.47;;;22.30;62.10;;;;;;5042830;28;20499;-70
2021/08/09 10:46:42;;;;;;;6.40;2.88;;;22.20;62.20;;;;;;5015018;28;20042;-70
2021/08/09 10:49:09;;;;;;;11.80;2.70;;;22.10;61.50;;;;;;5009799;28;20050;-69
2021/08/09 10:51:50;;;;;;;11.75;3.30;;;22.00;61.30;;;;;;5014499;28;20030;-68
2021/08/09 10:54:36;;;;;;;7.88;2.70;;;21.90;62.30;;;;;;5016971;28;20470;-70
2021/08/09 10:57:03;;;;;;;7.80;3.13;;;21.90;64.20;;;;;;5018743;28;20041;-69
2021/08/09 10:59:45;;;;;;;7.13;2.80;;;21.70;65.30;;;;;;5027241;28;20049;-68
2021/08/09 11:02:27;;;;;;;6.97;3.20;;;21.30;66.00;;;;;;5005780;28;20042;-70
2021/08/09 11:05:13;;;;;;;7.72;3.15;;;20.90;66.80;;;;;;5012162;28;20026;-70
2021/08/09 11:07:39;;;;;;;7.68;3.13;;;20.70;67.40;;;;;;5030539;28;20047;-74
2021/08/09 11:10:05;;;;;;;6.10;3.10;;;20.60;67.20;;;;;;5029649;28;20540;-71
2021/08/09 11:12:31;;;;;;;8.80;3.53;;;20.50;67.60;;;;;;5020644;28;20026;-71
2021/08/09 11:15:07;;;;;;;7.55;3.33;;;20.30;69.30;;;;;;5037123;28;20037;-68
2021/08/09 11:17:44;;;;;;;8.07;3.08;;;20.10;69.30;;;;;;5021479;28;20041;-68
2021/08/09 11:20:21;;;;;;;9.90;3.97;;;20.00;70.70;;;;;;5019000;28;20137;-69
2021/08/09 11:23:11;;;;;;;8.88;5.15;;;19.40;73.20;;;;;;5022079;28;20792;-69
2021/08/09 11:25:47;;;;;;;9.43;5.10;;;19.20;77.10;;;;;;5022847;28;20048;-69
2021/08/09 11:28:22;;;;;;;9.68;5.13;;;19.00;78.50;;;;;;5022530;28;20095;-69
2021/08/09 11:31:03;;;;;;;8.20;3.45;;;18.70;79.30;;;;;;5022155;28;20124;-69
2021/08/09 11:33:40;;;;;;;3.22;1.80;;;18.40;79.90;;;;;;5019330;28;20096;-70
2021/08/09 11:36:08;;;;;;;2.63;1.25;;;18.20;79.60;;;;;;5025552;28;20104;-71
2021/08/09 11:39:02;;;;;;;4.25;1.58;;;18.10;79.60;;;;;;5018366;28;20033;-70
2021/08/09 11:41:29;;;;;;;4.55;2.00;;;18.10;80.50;;;;;;5018390;28;20465;-72
2021/08/09 11:44:07;;;;;;;6.15;2.10;;;18.40;80.00;;;;;;5019622;28;20034;-71
2021/08/09 11:46:43;;;;;;;5.43;2.25;;;18.50;81.40;;;;;;5028396;28;20137;-70
2021/08/09 11:49:09;;;;;;;5.00;1.75;;;18.70;81.00;;;;;;5021333;28;20116;-70
2021/08/09 11:51:34;;;;;;;3.97;1.65;;;18.90;80.90;;;;;;5021869;28;20112;-69
2021/08/09 11:54:00;;;;;;;5.32;1.98;;;19.20;81.00;;;;;;5021989;28;20545;-71
2021/08/09 11:56:31;;;;;;;4.32;1.85;;;19.50;79.30;;;;;;5026162;28;20030;-71
2021/08/09 11:59:18;;;;;;;3.75;1.67;;;19.70;77.90;;;;;;5025228;28;20034;-70
2021/08/09 12:01:47;;;;;;;5.65;2.10;;;19.90;79.00;;;;;;5025933;28;20043;-71
2021/08/09 12:04:21;;;;;;;5.57;1.90;;;20.00;77.80;;;;;;5028606;28;20087;-70
2021/08/09 12:06:58;;;;;;;2.88;1.60;;;20.00;77.50;;;;;;5019868;28;20099;-70
2021/08/09 12:09:41;;;;;;;3.72;1.88;;;20.30;77.30;;;;;;5020701;28;20041;-70
2021/08/09 12:12:08;;;;;;;3.95;1.65;;;20.30;76.40;;;;;;5016041;28;20618;-70
2021/08/09 12:14:35;;;;;;;5.85;1.55;;;20.30;76.30;;;;;;5017794;28;20034;-70
2021/08/09 12:17:18;;;;;;;5.57;1.75;;;20.40;75.80;;;;;;5017867;28;20044;-70
2021/08/09 12:19:44;;;;;;;3.83;1.80;;;20.50;75.50;;;;;;5017899;28;20042;-72
2021/08/09 12:22:32;;;;;;;3.78;1.60;;;20.70;75.50;;;;;;5022887;28;20064;-70
2021/08/09 12:25:00;;;;;;;4.40;2.00;;;21.10;73.00;;;;;;5022675;28;20042;-72
2021/08/09 12:27:26;;;;;;;4.85;2.25;;;21.30;72.50;;;;;;5017426;28;20042;-70
2021/08/09 12:30:10;;;;;;;6.68;2.50;;;21.30;71.00;;;;;;5022676;28;20050;-71
2021/08/09 12:32:38;;;;;;;8.07;2.57;;;21.50;72.30;;;;;;5020280;28;20033;-70
2021/08/09 12:35:06;;;;;;;7.78;2.55;;;21.60;71.50;;;;;;5018586;28;20060;-70
2021/08/09 12:37:33;;;;;;;7.30;3.08;;;22.00;72.10;;;;;;5016218;28;20070;-70
2021/08/09 12:40:11;;;;;;;7.47;3.13;;;21.90;70.40;;;;;;5016173;28;20513;-70
2021/08/09 12:42:38;;;;;;;6.65;3.20;;;22.00;71.10;;;;;;5023375;28;20431;-70
2021/08/09 12:45:04;;;;;;;9.90;3.58;;;22.00;71.30;;;;;;5015724;28;20038;-70
2021/08/09 12:47:31;;;;;;;8.43;3.30;;;22.10;70.90;;;;;;5020242;28;20030;-70
2021/08/09 12:49:57;;;;;;;7.78;3.50;;;22.40;70.60;;;;;;5020729;28;20037;-70
2021/08/09 12:52:23;;;;;;;7.88;3.83;;;22.60;70.30;;;;;;5022127;28;20091;-70